Time;durP1;ratioP1;P1;durP2;ratioP2;P2;SDS_P1;SDS_P2;PMS_P1;PMS_P2;Temp;Humidity;BMP_temperature;BMP_pressure;BME280_temperature;BME280_humidity;BME280_pressure;Samples;Min_cycle;Max_cycle;Signal;HPM_P1;HPM_P2
2021/04/01 00:08:31;;;;;;;24.9;18.7;;;;;;;9.43;100;98871.5;;;;
2021/04/01 00:18:30;;;;;;;27.6;17.4;;;;;;;9.2;100;98854.34;;;;
2021/04/01 00:28:28;;;;;;;17.6;14.9;;;;;;;8.92;100;98831.13;;;;
2021/04/01 00:38:27;;;;;;;20.7;14;;;;;;;8.71;100;98832.48;;;;
2021/04/01 00:48:25;;;;;;;17.9;12.6;;;;;;;8.51;100;98814.72;;;;
2021/04/01 00:58:23;;;;;;;15;11.8;;;;;;;8.34;100;98806.34;;;;
2021/04/01 01:08:22;;;;;;;18.3;13.6;;;;;;;8.12;100;98795.31;;;;
2021/04/01 01:18:20;;;;;;;21.7;16.1;;;;;;;7.91;100;98789.38;;;;
2021/04/01 01:28:18;;;;;;;21.3;16.1;;;;;;;7.71;100;98774.27;;;;
2021/04/01 01:38:19;;;;;;;14.3;12.8;;;;;;;7.6;100;98759.38;;;;
2021/04/01 01:48:18;;;;;;;19.7;11.4;;;;;;;7.45;100;98748.8;;;;
2021/04/01 01:58:13;;;;;;;14.3;12.4;;;;;;;7.36;100;98735.19;;;;
2021/04/01 02:08:12;;;;;;;27.7;21.6;;;;;;;7.3;100;98728.28;;;;
2021/04/01 02:18:10;;;;;;;34.3;25.2;;;;;;;7.15;100;98728.41;;;;
2021/04/01 02:28:08;;;;;;;29.4;21.3;;;;;;;7.02;100;98710.3;;;;
2021/04/01 02:38:06;;;;;;;27.2;18.6;;;;;;;6.96;100;98701.52;;;;
2021/04/01 02:48:04;;;;;;;25.2;20.5;;;;;;;6.87;100;98702.41;;;;
2021/04/01 02:58:02;;;;;;;31.6;22.2;;;;;;;6.71;100;98690.2;;;;
2021/04/01 03:08:01;;;;;;;33.2;26.4;;;;;;;6.58;100;98697;;;;
2021/04/01 03:17:59;;;;;;;34.7;26.8;;;;;;;6.42;100;98687.48;;;;
2021/04/01 03:27:57;;;;;;;34.9;29.3;;;;;;;6.34;100;98677.34;;;;
2021/04/01 03:37:59;;;;;;;35.5;28.3;;;;;;;6.28;100;98671.2;;;;
2021/04/01 03:47:53;;;;;;;33.4;25.7;;;;;;;6.08;100;98664.11;;;;
2021/04/01 03:57:55;;;;;;;33.8;26.5;;;;;;;6.01;100;98654.78;;;;
2021/04/01 04:08:08;;;;;;;29.5;23.7;;;;;;;5.91;100;98647.61;;;;
2021/04/01 04:17:47;;;;;;;32;23.4;;;;;;;5.82;100;98641.22;;;;
2021/04/01 04:37:43;;;;;;;35.2;24.9;;;;;;;5.76;100;98644.2;;;;
2021/04/01 04:47:41;;;;;;;30.7;22.3;;;;;;;5.78;100;98636.69;;;;
2021/04/01 04:57:44;;;;;;;32.8;23;;;;;;;5.93;100;98626.76;;;;
2021/04/01 05:07:37;;;;;;;35.3;29.2;;;;;;;6.23;100;98625.77;;;;
2021/04/01 05:17:36;;;;;;;30;23.7;;;;;;;6.57;100;98625.77;;;;
2021/04/01 05:27:37;;;;;;;28.1;23.3;;;;;;;7.02;100;98624.56;;;;
2021/04/01 05:37:32;;;;;;;35.2;26.2;;;;;;;7.37;100;98626.06;;;;
2021/04/01 05:47:36;;;;;;;28.1;22.8;;;;;;;7.94;100;98623.22;;;;
2021/04/01 06:07:30;;;;;;;18.2;13.6;;;;;;;9.45;100;98600.3;;;;
2021/04/01 06:17:25;;;;;;;13.2;11.9;;;;;;;10.39;100;98592.34;;;;
2021/04/01 06:27:25;;;;;;;17.8;14.2;;;;;;;11.15;100;98606.59;;;;
2021/04/01 06:37:32;;;;;;;18;15.9;;;;;;;11.77;100;98608.13;;;;
2021/04/01 06:47:22;;;;;;;35.1;15.3;;;;;;;12.38;100;98598.98;;;;
2021/04/01 06:57:28;;;;;;;15.6;12.6;;;;;;;13;99.28516;98585.84;;;;
2021/04/01 07:07:21;;;;;;;24.6;14.3;;;;;;;13.63;95.17969;98584.17;;;;
2021/04/01 07:17:24;;;;;;;16.8;14.6;;;;;;;14.18;93.72363;98561.47;;;;
2021/04/01 07:47:15;;;;;;;37.1;20.7;;;;;;;15.88;88.36523;98551.74;;;;
2021/04/01 07:57:26;;;;;;;27.2;18.9;;;;;;;16.37;86.22949;98528.72;;;;
2021/04/01 08:07:14;;;;;;;27.3;19.1;;;;;;;16.89;83.95508;98530.51;;;;
2021/04/01 08:17:17;;;;;;;18.2;14.2;;;;;;;17.37;81.63281;98527.43;;;;
2021/04/01 08:27:19;;;;;;;16.9;12;;;;;;;17.71;77.49902;98525.11;;;;
2021/04/01 08:37:13;;;;;;;13.5;12.1;;;;;;;18.13;75.79199;98508.87;;;;
2021/04/01 08:47:12;;;;;;;14.9;11.8;;;;;;;18.53;74.21875;98496.44;;;;
2021/04/01 08:57:12;;;;;;;19.9;12.6;;;;;;;19.04;70.91504;98487.98;;;;
2021/04/01 09:07:11;;;;;;;13.9;11;;;;;;;19.44;70.96973;98480.05;;;;
2021/04/01 09:17:12;;;;;;;16.3;12.8;;;;;;;19.63;68.84082;98468.23;;;;
2021/04/01 09:27:11;;;;;;;16.3;12.5;;;;;;;19.89;67.4707;98451.76;;;;
2021/04/01 09:37:13;;;;;;;19.6;14;;;;;;;20.08;68.49512;98446.14;;;;
2021/04/01 09:47:11;;;;;;;22.9;13.5;;;;;;;20.36;66.8584;98439.44;;;;
2021/04/01 09:57:11;;;;;;;15.3;11.4;;;;;;;20.58;62.60547;98431.05;;;;
2021/04/01 10:07:14;;;;;;;22.7;12.6;;;;;;;20.94;62.76074;98415.71;;;;
2021/04/01 10:17:10;;;;;;;15.1;8.3;;;;;;;21.29;57.12695;98406.98;;;;
2021/04/01 10:27:15;;;;;;;11.1;8.8;;;;;;;21.86;53.50684;98394.34;;;;
2021/04/01 10:37:11;;;;;;;13.7;8.3;;;;;;;22.12;52.63965;98379.54;;;;
2021/04/01 10:47:11;;;;;;;18.3;9.4;;;;;;;22.6;48.03223;98366.27;;;;
2021/04/01 10:57:11;;;;;;;15.9;9.5;;;;;;;22.38;46.17188;98345.47;;;;
2021/04/01 11:07:11;;;;;;;15.9;8.7;;;;;;;22.37;36.63672;98332.91;;;;
2021/04/01 11:17:11;;;;;;;16.6;10.5;;;;;;;22.16;36.25586;98327.39;;;;
2021/04/01 11:27:11;;;;;;;19.9;11.3;;;;;;;22.61;35.72949;98328.59;;;;
2021/04/01 11:37:12;;;;;;;12.6;8.6;;;;;;;22.81;33.9834;98314.08;;;;
2021/04/01 11:47:12;;;;;;;14.1;9;;;;;;;22.99;33.49219;98292.85;;;;
2021/04/01 11:57:12;;;;;;;15.5;11.4;;;;;;;23.1;34.28809;98290.08;;;;
2021/04/01 12:07:13;;;;;;;17.7;10.4;;;;;;;22.65;35.37988;98272.48;;;;
2021/04/01 12:17:13;;;;;;;12.3;8.1;;;;;;;22.69;35.91113;98272.5;;;;
2021/04/01 12:27:13;;;;;;;10.1;7.3;;;;;;;22.92;35.94238;98268.13;;;;
2021/04/01 12:37:13;;;;;;;20.7;10;;;;;;;22.64;36.97559;98261.87;;;;
2021/04/01 12:47:13;;;;;;;20;13.5;;;;;;;22.52;36.68457;98241.89;;;;
2021/04/01 12:57:14;;;;;;;12.9;9;;;;;;;22.43;36.47754;98229.72;;;;
2021/04/01 13:07:21;;;;;;;12.2;9.3;;;;;;;22.61;36.66797;98219.5;;;;
2021/04/01 13:17:14;;;;;;;14.4;8.9;;;;;;;22.28;33.47266;98214.45;;;;
2021/04/01 13:27:14;;;;;;;10.7;7.7;;;;;;;21.79;33.92969;98215.2;;;;
2021/04/01 13:37:17;;;;;;;14.4;9.5;;;;;;;21.63;35.32227;98209.28;;;;
2021/04/01 13:47:14;;;;;;;22.9;11;;;;;;;21.46;34.80566;98197.11;;;;
2021/04/01 13:57:24;;;;;;;17.6;12.2;;;;;;;21.31;34.98145;98195.52;;;;
2021/04/01 14:17:14;;;;;;;18.8;14.2;;;;;;;21.1;35.76074;98177.06;;;;
2021/04/01 14:27:24;;;;;;;12.5;9.6;;;;;;;21.09;34.625;98164.48;;;;
2021/04/01 14:37:14;;;;;;;16.6;10;;;;;;;21.15;33.00195;98159.44;;;;
2021/04/01 14:47:14;;;;;;;14.3;10.8;;;;;;;21.32;33.20215;98151.26;;;;
2021/04/01 14:57:15;;;;;;;14.8;11.2;;;;;;;21.08;32.29395;98133.55;;;;
2021/04/01 15:07:14;;;;;;;16.2;11.8;;;;;;;20.88;32.86426;98131.53;;;;
2021/04/01 15:17:13;;;;;;;24.7;12.6;;;;;;;20.43;34.21191;98128.22;;;;
2021/04/01 15:27:14;;;;;;;17;13;;;;;;;20.09;34.81641;98116.66;;;;
2021/04/01 15:37:16;;;;;;;19.2;12.2;;;;;;;19.55;35.86914;98143.96;;;;
2021/04/01 15:47:13;;;;;;;14.3;10.2;;;;;;;18.11;46.85547;98236.5;;;;
2021/04/01 15:57:13;;;;;;;10;6.2;;;;;;;16.37;58.21094;98168.89;;;;
2021/04/01 16:07:12;;;;;;;10.3;6.5;;;;;;;15.43;59.63672;98174.38;;;;
2021/04/01 16:17:12;;;;;;;14.4;9.8;;;;;;;15.2;61.47266;98181.53;;;;
2021/04/01 16:27:10;;;;;;;14.4;10.1;;;;;;;15.21;57.37012;98202.88;;;;
2021/04/01 16:37:10;;;;;;;23.2;13.4;;;;;;;15.22;55.19238;98180.03;;;;
2021/04/01 16:47:09;;;;;;;21;11.4;;;;;;;15.97;45.53418;98167.2;;;;
2021/04/01 16:57:08;;;;;;;13.7;11.5;;;;;;;15.82;47.33887;98168.03;;;;
2021/04/01 17:07:07;;;;;;;15.5;12.1;;;;;;;15.51;50.2627;98163.38;;;;
2021/04/01 17:17:06;;;;;;;15.5;10.8;;;;;;;15.59;48.02832;98165.13;;;;
2021/04/01 17:27:06;;;;;;;22;15.2;;;;;;;15.7;48.7998;98181.69;;;;
2021/04/01 17:37:05;;;;;;;19.3;15.4;;;;;;;15.82;50.01074;98219.66;;;;
2021/04/01 17:47:04;;;;;;;22.4;18.2;;;;;;;15.68;53.16797;98221.22;;;;
2021/04/01 17:57:03;;;;;;;18.7;16.3;;;;;;;14.96;58.54199;98199.48;;;;
2021/04/01 18:27:18;;;;;;;24.8;17.4;;;;;;;13.66;67.28125;98198.95;;;;
2021/04/01 18:37:10;;;;;;;23.9;16.6;;;;;;;13.47;66.43262;98199.47;;;;
2021/04/01 18:47:08;;;;;;;23;17.5;;;;;;;13.3;65.87109;98194.24;;;;
2021/04/01 18:57:03;;;;;;;27.8;19.4;;;;;;;13.2;66.80078;98218.23;;;;
2021/04/01 19:07:03;;;;;;;21.2;18.2;;;;;;;13.05;66.68652;98219.63;;;;
2021/04/01 19:26:54;;;;;;;29.6;22.3;;;;;;;13.02;72.40234;98255.44;;;;
2021/04/01 19:36:52;;;;;;;58.5;39.9;;;;;;;12.99;71.79492;98273.13;;;;
2021/04/01 19:46:51;;;;;;;37.9;27.8;;;;;;;13.06;70.93066;98286.13;;;;
2021/04/01 19:56:50;;;;;;;34.7;29.6;;;;;;;13.01;71.30957;98278.22;;;;
2021/04/01 20:06:49;;;;;;;28.7;19.1;;;;;;;13.18;58.64746;98301.67;;;;
2021/04/01 20:16:48;;;;;;;26.8;18.7;;;;;;;13.24;57.12598;98306.55;;;;
2021/04/01 20:26:47;;;;;;;25.2;18.1;;;;;;;13.29;55.90918;98308.27;;;;
2021/04/01 20:36:45;;;;;;;30.7;18.3;;;;;;;13.19;55.69043;98308.67;;;;
2021/04/01 20:46:44;;;;;;;21.1;16.4;;;;;;;13.06;56.99902;98315.88;;;;
2021/04/01 20:56:43;;;;;;;46.7;34.9;;;;;;;12.91;60.52734;98333.48;;;;
2021/04/01 21:06:42;;;;;;;24.1;15.1;;;;;;;12.85;62.30762;98342.13;;;;
2021/04/01 21:16:41;;;;;;;17.8;13.4;;;;;;;12.42;64.94238;98324.25;;;;
2021/04/01 21:26:40;;;;;;;18.8;13.5;;;;;;;12.06;71.16602;98323.91;;;;
2021/04/01 21:36:38;;;;;;;25.3;14.5;;;;;;;11.8;73.31152;98326.67;;;;
2021/04/01 21:46:37;;;;;;;21;17.4;;;;;;;11.67;74.8291;98319.53;;;;
2021/04/01 21:56:36;;;;;;;21.6;14.6;;;;;;;11.73;71.13477;98320.2;;;;
2021/04/01 22:06:35;;;;;;;20.7;14.4;;;;;;;11.67;70.69531;98314.13;;;;
2021/04/01 22:16:33;;;;;;;28.8;13.7;;;;;;;11.69;70.1543;98306.53;;;;
2021/04/01 22:26:32;;;;;;;22.7;14.8;;;;;;;11.56;71.2998;98288.59;;;;
2021/04/01 22:36:31;;;;;;;20.2;14.9;;;;;;;11.48;70.98047;98292.11;;;;
2021/04/01 22:46:30;;;;;;;20.2;15.1;;;;;;;11.28;73.04297;98265.8;;;;
2021/04/01 22:56:28;;;;;;;21.1;16.1;;;;;;;11.05;74.23828;98268.66;;;;
2021/04/01 23:06:27;;;;;;;20.1;15.9;;;;;;;10.87;76.30762;98267.07;;;;
2021/04/01 23:16:26;;;;;;;22;15.8;;;;;;;10.84;77.25098;98272.3;;;;
2021/04/01 23:26:25;;;;;;;21.7;16.9;;;;;;;10.76;79.42578;98238.06;;;;
2021/04/01 23:36:24;;;;;;;25.9;15.1;;;;;;;10.79;78.12207;98248.21;;;;
2021/04/01 23:46:22;;;;;;;19.2;15.4;;;;;;;10.67;80.39063;98238.05;;;;
2021/04/01 23:56:21;;;;;;;24.6;15.2;;;;;;;10.56;80.20117;98224.09;;;;
